createdAt,value
2022-11-05T00:00:45.040Z,93.16
2022-11-05T00:03:32.688Z,93.87
2022-11-05T00:06:20.311Z,93.43
2022-11-05T00:09:07.799Z,93.35
2022-11-05T00:11:54.444Z,94.07
2022-11-05T00:14:41.701Z,95.79
2022-11-05T00:17:10.509Z,94.42
2022-11-05T00:19:39.953Z,95.65
2022-11-05T00:22:27.789Z,96.29
2022-11-05T00:25:14.766Z,96.32
2022-11-05T00:27:47.121Z,96.06
2022-11-05T00:30:22.637Z,96.97
2022-11-05T00:32:52.985Z,96.89
2022-11-05T00:35:23.065Z,95.88
2022-11-05T00:37:53.952Z,96.78
2022-11-05T00:40:22.577Z,96.74
2022-11-05T00:43:10.569Z,96.00
2022-11-05T00:45:40.027Z,95.87
2022-11-05T00:48:26.950Z,94.70
2022-11-05T00:50:56.525Z,94.86
2022-11-05T00:53:24.701Z,96.16
2022-11-05T00:55:53.180Z,95.74
2022-11-05T00:58:24.041Z,94.92
2022-11-05T01:00:56.462Z,94.40
2022-11-05T01:03:33.286Z,93.91
2022-11-05T01:06:13.326Z,94.73
2022-11-05T01:08:44.165Z,95.86
2022-11-05T01:11:39.523Z,95.24
2022-11-05T01:14:12.717Z,100.00
2022-11-05T01:16:41.051Z,95.10
2022-11-05T01:19:11.016Z,97.24
2022-11-05T01:21:38.814Z,98.95
2022-11-05T01:24:08.460Z,98.65
2022-11-05T01:26:36.379Z,97.46
2022-11-05T01:29:03.786Z,95.88
2022-11-05T01:31:33.238Z,96.48
2022-11-05T01:34:03.538Z,95.87
2022-11-05T01:36:34.000Z,96.70
2022-11-05T01:39:04.757Z,96.82
2022-11-05T01:41:35.014Z,97.83
2022-11-05T01:44:03.791Z,99.54
2022-11-05T01:46:43.699Z,98.53
2022-11-05T01:49:22.587Z,98.70
2022-11-05T01:51:52.053Z,98.67
2022-11-05T01:54:23.205Z,99.75
2022-11-05T01:57:04.434Z,100.00
2022-11-05T01:59:37.391Z,99.00
2022-11-05T02:02:07.956Z,97.73
2022-11-05T02:04:46.084Z,98.59
2022-11-05T02:07:15.786Z,97.37
2022-11-05T02:10:01.961Z,97.91
2022-11-05T02:12:32.609Z,97.69
2022-11-05T02:15:02.904Z,97.98
2022-11-05T02:18:00.612Z,97.61
2022-11-05T02:20:36.071Z,97.63
2022-11-05T02:23:18.732Z,97.44
2022-11-05T02:26:14.374Z,99.57
2022-11-05T02:29:28.606Z,99.07
2022-11-05T02:32:25.096Z,100.00
2022-11-05T02:35:00.001Z,99.54
2022-11-05T02:37:41.226Z,99.85
2022-11-05T02:40:26.367Z,100.00
2022-11-05T02:43:05.752Z,100.00
2022-11-05T02:46:09.207Z,100.00
2022-11-05T02:48:56.466Z,100.00
2022-11-05T02:51:35.605Z,100.00
2022-11-05T02:54:18.583Z,100.00
2022-11-05T02:56:48.658Z,100.00
2022-11-05T02:59:18.714Z,99.48
2022-11-05T03:01:48.502Z,99.18
2022-11-05T03:04:22.969Z,99.16
2022-11-05T03:07:17.144Z,99.93
2022-11-05T03:10:02.259Z,100.00
2022-11-05T03:12:50.795Z,99.45
2022-11-05T03:15:38.252Z,99.41
2022-11-05T03:18:30.831Z,99.82
2022-11-05T03:21:02.910Z,99.36
2022-11-05T03:23:45.727Z,99.89
2022-11-05T03:26:31.095Z,99.10
2022-11-05T03:29:13.443Z,98.56
2022-11-05T03:31:43.422Z,98.60
2022-11-05T03:34:13.650Z,98.62
2022-11-05T03:36:46.247Z,98.03
2022-11-05T03:39:20.194Z,98.22
2022-11-05T03:41:53.325Z,98.45
2022-11-05T03:44:30.598Z,98.68
2022-11-05T03:47:07.298Z,98.62
2022-11-05T03:49:49.875Z,98.71
2022-11-05T03:52:21.490Z,98.33
2022-11-05T03:54:51.925Z,98.01
2022-11-05T03:57:25.898Z,97.60
2022-11-05T03:59:55.153Z,97.57
2022-11-05T04:02:26.613Z,97.84
2022-11-05T04:04:56.135Z,96.89
2022-11-05T04:07:43.853Z,97.03
2022-11-05T04:10:32.563Z,96.53
2022-11-05T04:13:20.353Z,96.65
2022-11-05T04:16:09.806Z,98.04
2022-11-05T04:18:38.783Z,98.06
2022-11-05T04:21:25.870Z,98.41
2022-11-05T04:24:09.711Z,98.04
2022-11-05T04:26:40.053Z,97.72
2022-11-05T04:29:27.070Z,96.90
2022-11-05T04:31:56.616Z,97.83
2022-11-05T04:34:26.359Z,98.90
2022-11-05T04:36:56.336Z,97.37
2022-11-05T04:39:25.349Z,97.25
2022-11-05T04:41:54.901Z,97.75
2022-11-05T04:44:23.289Z,97.90
2022-11-05T04:46:53.788Z,98.10
2022-11-05T04:49:24.224Z,98.59
2022-11-05T04:51:52.702Z,98.41
2022-11-05T04:54:20.984Z,97.77
2022-11-05T04:56:48.884Z,97.35
2022-11-05T04:59:22.760Z,97.20
2022-11-05T05:01:53.722Z,97.67
2022-11-05T05:04:23.609Z,97.91
2022-11-05T05:06:51.050Z,97.61
2022-11-05T05:09:20.255Z,97.09
2022-11-05T05:11:49.637Z,97.03
2022-11-05T05:14:17.906Z,96.89
2022-11-05T05:16:45.911Z,96.36
2022-11-05T05:19:16.541Z,96.62
2022-11-05T05:21:46.359Z,95.56
2022-11-05T05:24:19.259Z,95.46
2022-11-05T05:26:50.281Z,95.57
2022-11-05T05:29:19.518Z,95.46
2022-11-05T05:31:47.371Z,95.35
2022-11-05T05:34:14.909Z,95.46
2022-11-05T05:36:43.398Z,94.53
2022-11-05T05:39:13.168Z,94.74
2022-11-05T05:41:41.701Z,95.02
2022-11-05T05:44:10.329Z,95.40
2022-11-05T05:46:38.933Z,95.45
2022-11-05T05:49:12.537Z,93.78
2022-11-05T05:51:42.322Z,93.54
2022-11-05T05:54:12.538Z,93.09
2022-11-05T05:56:46.323Z,93.65
2022-11-05T05:59:14.614Z,93.07
2022-11-05T06:01:43.855Z,93.11
2022-11-05T06:04:12.933Z,94.94
2022-11-05T06:06:42.605Z,93.14
2022-11-05T06:09:12.345Z,93.08
2022-11-05T06:11:41.687Z,93.02
2022-11-05T06:14:12.251Z,92.89
2022-11-05T06:16:42.395Z,91.86
2022-11-05T06:19:11.765Z,91.52
2022-11-05T06:21:41.255Z,92.76
2022-11-05T06:24:11.959Z,91.91
2022-11-05T06:26:44.464Z,92.79
2022-11-05T06:29:12.572Z,91.99
2022-11-05T06:31:43.286Z,91.33
2022-11-05T06:34:11.606Z,91.58
2022-11-05T06:36:40.341Z,91.17
2022-11-05T06:39:13.284Z,91.41
2022-11-05T06:42:16.455Z,91.89
2022-11-05T06:44:38.564Z,92.60
2022-11-05T06:47:09.871Z,91.62
2022-11-05T06:49:41.030Z,91.62
2022-11-05T06:52:10.715Z,91.33
2022-11-05T06:54:39.817Z,91.33
2022-11-05T06:57:10.044Z,90.83
2022-11-05T06:59:42.272Z,91.06
2022-11-05T07:02:14.433Z,90.76
2022-11-05T07:04:42.646Z,89.50
2022-11-05T07:07:10.286Z,89.81
2022-11-05T07:09:43.842Z,90.00
2022-11-05T07:12:11.903Z,89.85
2022-11-05T07:14:40.730Z,89.40
2022-11-05T07:17:09.128Z,90.36
2022-11-05T07:19:38.461Z,89.33
2022-11-05T07:22:08.250Z,89.69
2022-11-05T07:24:42.129Z,89.69
2022-11-05T07:27:12.596Z,88.54
2022-11-05T07:29:41.015Z,88.89
2022-11-05T07:32:09.301Z,89.32
2022-11-05T07:34:37.930Z,88.76
2022-11-05T07:37:09.159Z,87.87
2022-11-05T07:39:38.172Z,88.34
2022-11-05T07:42:06.727Z,87.75
2022-11-05T07:44:34.661Z,87.17
2022-11-05T07:47:05.014Z,87.95
2022-11-05T07:49:37.503Z,87.69
2022-11-05T07:52:07.510Z,87.83
2022-11-05T07:54:36.338Z,85.86
2022-11-05T07:57:05.214Z,86.06
2022-11-05T07:59:34.139Z,86.82
2022-11-05T08:02:03.805Z,87.16
2022-11-05T08:04:44.424Z,85.47
2022-11-05T08:07:14.184Z,85.46
2022-11-05T08:09:47.205Z,84.58
2022-11-05T08:12:16.326Z,85.66
2022-11-05T08:14:47.171Z,85.02
2022-11-05T08:17:18.555Z,82.95
2022-11-05T08:19:49.785Z,82.48
2022-11-05T08:22:18.591Z,83.15
2022-11-05T08:24:48.348Z,84.31
2022-11-05T08:27:18.376Z,83.36
2022-11-05T08:29:47.614Z,84.17
2022-11-05T08:32:16.837Z,82.03
2022-11-05T08:34:46.597Z,84.25
2022-11-05T08:37:15.654Z,82.86
2022-11-05T08:39:44.636Z,81.22
2022-11-05T08:42:15.115Z,81.65
2022-11-05T08:44:44.072Z,81.13
2022-11-05T08:47:18.612Z,82.99
2022-11-05T08:49:49.022Z,81.37
2022-11-05T08:52:18.958Z,80.76
2022-11-05T08:54:48.207Z,80.87
2022-11-05T08:57:17.447Z,81.23
2022-11-05T08:59:45.523Z,82.10
2022-11-05T09:02:15.291Z,81.49
2022-11-05T09:04:45.334Z,80.81
2022-11-05T09:07:14.874Z,81.83
2022-11-05T09:09:43.364Z,80.10
2022-11-05T09:12:12.981Z,78.59
2022-11-05T09:14:43.078Z,78.70
2022-11-05T09:17:21.770Z,78.24
2022-11-05T09:19:50.329Z,79.17
2022-11-05T09:22:19.173Z,79.34
2022-11-05T09:25:10.620Z,80.30
2022-11-05T09:27:42.128Z,80.66
2022-11-05T09:30:21.773Z,78.47
2022-11-05T09:32:51.900Z,80.61
2022-11-05T09:35:20.834Z,79.47
2022-11-05T09:37:50.578Z,79.54
2022-11-05T09:40:19.976Z,79.73
2022-11-05T09:42:53.304Z,80.12
2022-11-05T09:45:26.096Z,81.50
2022-11-05T09:48:02.481Z,79.50
2022-11-05T09:50:38.357Z,79.32
2022-11-05T09:53:08.946Z,80.52
2022-11-05T09:55:42.107Z,79.87
2022-11-05T09:58:32.850Z,80.00
2022-11-05T10:01:04.474Z,79.51
2022-11-05T10:03:34.593Z,78.83
2022-11-05T10:06:09.089Z,79.38
2022-11-05T10:08:44.881Z,79.00
2022-11-05T10:11:39.139Z,77.51
2022-11-05T10:14:23.833Z,78.70
2022-11-05T10:17:11.973Z,80.06
2022-11-05T10:19:51.259Z,78.80
2022-11-05T10:22:21.627Z,79.35
2022-11-05T10:24:55.382Z,77.79
2022-11-05T10:27:31.508Z,77.00
2022-11-05T10:30:02.495Z,79.59
2022-11-05T10:32:37.195Z,78.90
2022-11-05T10:35:12.881Z,77.76
2022-11-05T10:37:42.639Z,77.68
2022-11-05T10:40:25.170Z,78.61
2022-11-05T10:43:14.595Z,78.65
2022-11-05T10:46:08.438Z,78.82
2022-11-05T10:48:53.109Z,78.77
2022-11-05T10:51:22.448Z,77.70
2022-11-05T10:54:00.500Z,77.37
2022-11-05T10:56:38.168Z,77.51
2022-11-05T10:59:19.829Z,77.21
2022-11-05T11:01:47.862Z,77.00
2022-11-05T11:04:27.951Z,78.27
2022-11-05T11:07:00.925Z,77.34
2022-11-05T11:09:35.921Z,76.92
2022-11-05T11:12:21.722Z,77.00
2022-11-05T11:15:05.737Z,76.86
2022-11-05T11:17:35.954Z,76.44
2022-11-05T11:20:20.531Z,78.34
2022-11-05T11:23:03.491Z,77.53
2022-11-05T11:25:51.525Z,77.37
2022-11-05T11:28:28.128Z,76.54
2022-11-05T11:31:04.802Z,76.76
2022-11-05T11:33:35.703Z,77.59
2022-11-05T11:36:04.244Z,77.13
2022-11-05T11:38:34.717Z,76.33
2022-11-05T11:41:15.676Z,76.55
2022-11-05T11:43:45.564Z,77.71
2022-11-05T11:46:19.694Z,77.71
2022-11-05T11:48:50.572Z,77.99
2022-11-05T11:51:41.400Z,77.88
2022-11-05T11:54:29.026Z,78.17
2022-11-05T11:56:58.790Z,79.27
2022-11-05T12:00:01.838Z,78.72
2022-11-05T12:02:41.436Z,78.59
2022-11-05T12:05:20.327Z,78.27
2022-11-05T12:07:58.761Z,78.13
2022-11-05T12:11:03.607Z,77.04
2022-11-05T12:13:42.490Z,77.10
2022-11-05T12:16:42.863Z,77.06
2022-11-05T12:19:39.461Z,76.37
2022-11-05T12:22:30.903Z,77.61
2022-11-05T12:25:23.597Z,75.90
2022-11-05T12:27:59.499Z,76.38
2022-11-05T12:30:52.599Z,76.99
2022-11-05T12:33:43.203Z,75.95
2022-11-05T12:36:34.484Z,76.72
2022-11-05T12:39:06.469Z,74.89
2022-11-05T12:41:49.924Z,74.90
2022-11-05T12:44:42.861Z,75.14
2022-11-05T12:47:49.038Z,75.79
2022-11-05T12:50:28.803Z,76.68
2022-11-05T12:53:01.596Z,75.71
2022-11-05T12:55:48.113Z,76.10
2022-11-05T12:58:22.078Z,76.20
2022-11-05T13:00:57.670Z,75.24
2022-11-05T13:03:36.230Z,74.73
2022-11-05T13:06:16.231Z,78.09
2022-11-05T13:09:04.661Z,75.94
2022-11-05T13:12:03.288Z,75.06
2022-11-05T13:14:41.065Z,76.61
2022-11-05T13:17:20.834Z,74.33
2022-11-05T13:20:17.620Z,75.66
2022-11-05T13:23:04.047Z,74.73
2022-11-05T13:25:36.737Z,74.49
2022-11-05T13:28:25.175Z,74.78
2022-11-05T13:31:02.006Z,74.76
2022-11-05T13:33:35.958Z,74.65
2022-11-05T13:36:39.180Z,75.29
2022-11-05T13:39:30.829Z,74.10
2022-11-05T13:42:21.553Z,75.35
2022-11-05T13:45:30.861Z,75.73
2022-11-05T13:48:48.469Z,75.67
2022-11-05T13:51:48.182Z,75.96
2022-11-05T13:54:23.890Z,75.64
2022-11-05T13:57:22.562Z,76.33
2022-11-05T14:00:17.560Z,76.58
2022-11-05T14:02:52.064Z,75.89
2022-11-05T14:05:29.283Z,75.94
2022-11-05T14:08:01.688Z,76.00
2022-11-05T14:10:39.302Z,75.63
2022-11-05T14:13:27.766Z,76.01
2022-11-05T14:16:09.913Z,76.06
2022-11-05T14:18:42.426Z,75.25
2022-11-05T14:21:47.766Z,75.42
2022-11-05T14:24:22.699Z,75.87
2022-11-05T14:27:03.357Z,75.40
2022-11-05T14:29:42.754Z,75.27
2022-11-05T14:32:20.221Z,75.75
2022-11-05T14:35:16.145Z,75.02
2022-11-05T14:38:28.699Z,75.59
2022-11-05T14:41:01.165Z,76.35
2022-11-05T14:43:37.521Z,76.92
2022-11-05T14:46:08.963Z,76.33
2022-11-05T14:48:43.442Z,76.21
2022-11-05T14:51:34.095Z,76.64
2022-11-05T14:54:26.198Z,77.24
2022-11-05T14:57:00.109Z,77.58
2022-11-05T14:59:32.619Z,76.97
2022-11-05T15:02:07.531Z,76.35
2022-11-05T15:04:45.827Z,76.57
2022-11-05T15:07:32.288Z,76.62
2022-11-05T15:10:21.224Z,76.14
2022-11-05T15:12:58.305Z,76.44
2022-11-05T15:15:32.793Z,76.78
2022-11-05T15:18:32.607Z,77.41
2022-11-05T15:21:02.664Z,77.55
2022-11-05T15:23:46.113Z,77.38
2022-11-05T15:26:20.011Z,78.18
2022-11-05T15:28:51.884Z,77.72
2022-11-05T15:31:41.432Z,77.50
2022-11-05T15:34:35.561Z,77.60
2022-11-05T15:37:10.971Z,78.37
2022-11-05T15:39:41.105Z,78.17
2022-11-05T15:42:18.451Z,78.34
2022-11-05T15:44:55.482Z,78.41
2022-11-05T15:47:36.612Z,78.56
2022-11-05T15:50:17.750Z,78.39
2022-11-05T15:52:51.017Z,77.82
2022-11-05T15:55:25.224Z,78.56
2022-11-05T15:58:08.585Z,79.35
2022-11-05T16:00:48.787Z,79.60
2022-11-05T16:03:34.512Z,79.64
2022-11-05T16:06:03.777Z,79.82
2022-11-05T16:08:32.706Z,79.18
2022-11-05T16:11:03.640Z,79.72
2022-11-05T16:13:38.565Z,79.21
2022-11-05T16:16:15.155Z,80.17
2022-11-05T16:18:45.840Z,80.95
2022-11-05T16:21:22.944Z,81.16
2022-11-05T16:23:52.926Z,81.92
2022-11-05T16:29:40.816Z,82.74
2022-11-05T16:32:30.999Z,83.37
2022-11-05T16:35:04.009Z,83.89
2022-11-05T16:37:46.452Z,84.55
2022-11-05T16:40:24.145Z,83.54
2022-11-05T16:42:54.652Z,83.93
2022-11-05T16:45:27.103Z,84.58
2022-11-05T16:47:55.609Z,87.86
2022-11-05T16:50:29.461Z,85.35
2022-11-05T16:52:59.524Z,84.63
2022-11-05T16:55:34.070Z,84.90
2022-11-05T16:58:02.894Z,84.79
2022-11-05T17:00:32.089Z,85.83
2022-11-05T17:03:02.522Z,84.78
2022-11-05T17:05:33.136Z,85.51
2022-11-05T17:08:04.027Z,84.51
2022-11-05T17:10:34.529Z,86.41
2022-11-05T17:13:05.708Z,87.03
2022-11-05T17:15:38.691Z,88.48
2022-11-05T17:18:11.630Z,87.76
2022-11-05T17:20:55.794Z,84.93
2022-11-05T17:23:28.109Z,87.77
2022-11-05T17:26:05.522Z,86.94
2022-11-05T17:28:39.802Z,84.51
2022-11-05T17:31:14.364Z,85.14
2022-11-05T17:33:44.998Z,86.20
2022-11-05T17:36:17.303Z,87.01
2022-11-05T17:38:47.403Z,86.08
2022-11-05T17:41:31.782Z,86.40
2022-11-05T17:44:15.151Z,87.94
2022-11-05T17:46:46.485Z,89.27
2022-11-05T17:49:17.124Z,87.46
2022-11-05T17:51:45.817Z,89.01
2022-11-05T17:54:16.244Z,90.53
2022-11-05T17:56:46.411Z,88.53
2022-11-05T17:59:16.100Z,90.79
2022-11-05T18:01:46.742Z,94.10
2022-11-05T18:04:16.974Z,94.91
2022-11-05T18:06:45.040Z,97.62
2022-11-05T18:09:14.716Z,96.93
2022-11-05T18:11:45.898Z,93.99
2022-11-05T18:14:16.757Z,96.65
2022-11-05T18:16:51.949Z,91.26
2022-11-05T18:19:21.822Z,92.85
2022-11-05T18:21:51.064Z,91.87
2022-11-05T18:24:20.456Z,96.90
2022-11-05T18:26:51.232Z,96.33
2022-11-05T18:29:22.407Z,94.34
2022-11-05T18:31:52.876Z,97.70
2022-11-05T18:34:23.735Z,97.15
2022-11-05T18:36:56.169Z,96.96
2022-11-05T18:39:28.001Z,96.09
2022-11-05T18:41:55.863Z,95.79
2022-11-05T18:44:27.433Z,96.81
2022-11-05T18:46:58.972Z,95.30
2022-11-05T18:49:30.159Z,96.49
2022-11-05T18:52:00.848Z,96.49
2022-11-05T18:54:31.046Z,97.41
2022-11-05T18:57:01.390Z,97.46
2022-11-05T18:59:38.273Z,97.61
2022-11-05T19:02:09.633Z,97.67
2022-11-05T19:04:39.477Z,99.41
2022-11-05T19:07:10.013Z,98.53
2022-11-05T19:09:40.988Z,98.42
2022-11-05T19:12:10.800Z,91.76
2022-11-05T19:14:40.534Z,87.00
2022-11-05T19:17:12.725Z,88.61
2022-11-05T19:19:44.612Z,89.76
2022-11-05T19:22:13.660Z,90.67
2022-11-05T19:24:43.248Z,91.91
2022-11-05T19:27:13.817Z,92.90
2022-11-05T19:29:43.652Z,92.54
2022-11-05T19:32:14.291Z,93.94
2022-11-05T19:34:45.295Z,95.77
2022-11-05T19:37:14.540Z,94.73
2022-11-05T19:39:44.793Z,94.07
2022-11-05T19:42:14.684Z,93.75
2022-11-05T19:44:44.331Z,93.74
2022-11-05T19:47:14.396Z,93.34
2022-11-05T19:49:45.169Z,96.84
2022-11-05T19:52:13.651Z,94.44
2022-11-05T19:54:47.305Z,93.04
2022-11-05T19:57:17.570Z,97.36
2022-11-05T19:59:48.702Z,94.27
2022-11-05T20:02:19.523Z,99.97
2022-11-05T20:04:52.252Z,98.70
2022-11-05T20:07:22.972Z,100.00
2022-11-05T20:10:03.417Z,99.33
2022-11-05T20:12:37.141Z,94.67
2022-11-05T20:15:07.849Z,95.59
2022-11-05T20:17:39.727Z,95.96
2022-11-05T20:20:13.895Z,95.65
2022-11-05T20:22:49.115Z,95.04
2022-11-05T20:25:18.133Z,92.12
2022-11-05T20:27:48.784Z,89.98
2022-11-05T20:30:18.278Z,87.06
2022-11-05T20:32:48.006Z,88.15
2022-11-05T20:35:16.715Z,89.68
2022-11-05T20:37:48.537Z,92.90
2022-11-05T20:40:21.131Z,89.43
2022-11-05T20:42:50.203Z,88.26
2022-11-05T20:45:22.117Z,87.66
2022-11-05T20:47:56.453Z,94.89
2022-11-05T20:50:26.509Z,94.16
2022-11-05T20:52:55.965Z,97.28
2022-11-05T20:55:27.858Z,94.83
2022-11-05T20:57:57.962Z,94.94
2022-11-05T21:00:29.752Z,97.25
2022-11-05T21:03:00.829Z,100.00
2022-11-05T21:05:35.631Z,95.12
2022-11-05T21:08:05.640Z,97.27
2022-11-05T21:10:36.474Z,91.29
2022-11-05T21:13:10.725Z,88.64
2022-11-05T21:15:41.026Z,95.94
2022-11-05T21:18:11.111Z,94.60
2022-11-05T21:20:40.981Z,89.97
2022-11-05T21:23:12.026Z,88.83
2022-11-05T21:25:42.491Z,94.40
2022-11-05T21:28:15.775Z,95.17
2022-11-05T21:30:47.745Z,94.44
2022-11-05T21:33:19.612Z,95.60
2022-11-05T21:35:50.238Z,93.39
2022-11-05T21:38:20.802Z,90.37
2022-11-05T21:40:50.670Z,91.03
2022-11-05T21:43:26.065Z,96.87
2022-11-05T21:45:55.515Z,92.40
2022-11-05T21:48:24.084Z,96.75
2022-11-05T21:51:12.034Z,95.66
2022-11-05T21:54:00.916Z,98.76
2022-11-05T21:56:50.368Z,96.46
2022-11-05T21:59:41.321Z,97.72
2022-11-05T22:02:13.213Z,98.35
2022-11-05T22:04:46.862Z,99.99
2022-11-05T22:07:19.190Z,97.25
2022-11-05T22:09:49.050Z,94.80
2022-11-05T22:12:19.491Z,96.80
2022-11-05T22:14:49.036Z,95.08
2022-11-05T22:17:20.221Z,89.84
2022-11-05T22:19:49.542Z,88.55
2022-11-05T22:22:17.572Z,92.63
2022-11-05T22:24:46.272Z,96.50
2022-11-05T22:27:18.219Z,94.41
2022-11-05T22:29:47.336Z,91.61
2022-11-05T22:32:18.508Z,91.55
2022-11-05T22:34:49.555Z,90.94
2022-11-05T22:37:18.498Z,95.44
2022-11-05T22:39:48.905Z,96.05
2022-11-05T22:42:17.810Z,90.80
2022-11-05T22:44:48.799Z,91.46
2022-11-05T22:47:18.655Z,93.73
2022-11-05T22:49:50.482Z,96.17
2022-11-05T22:52:20.602Z,99.00
2022-11-05T22:54:50.569Z,100.00
2022-11-05T22:57:19.625Z,100.00
2022-11-05T22:59:47.901Z,96.02
2022-11-05T23:02:15.708Z,96.67
2022-11-05T23:04:45.110Z,99.63
2022-11-05T23:07:33.056Z,98.08
2022-11-05T23:10:20.778Z,94.05
2022-11-05T23:12:54.029Z,92.07
2022-11-05T23:15:42.424Z,91.30
2022-11-05T23:18:29.398Z,91.94
2022-11-05T23:21:22.715Z,93.23
2022-11-05T23:24:06.750Z,90.38
2022-11-05T23:26:50.484Z,89.61
2022-11-05T23:29:23.585Z,91.71
2022-11-05T23:32:12.979Z,87.36
2022-11-05T23:34:42.189Z,90.34
2022-11-05T23:37:31.783Z,93.88
2022-11-05T23:40:00.214Z,87.45
2022-11-05T23:42:49.705Z,93.66
2022-11-05T23:45:38.166Z,91.56
2022-11-05T23:48:19.678Z,93.35
2022-11-05T23:50:56.523Z,90.65
2022-11-05T23:53:27.602Z,92.01
2022-11-05T23:56:00.723Z,87.26
2022-11-05T23:58:29.806Z,87.47
